createdAt,value
2022-11-06T00:01:48.745Z,100918.22
2022-11-06T00:07:09.183Z,100915.75
2022-11-06T00:12:29.799Z,100945.81
2022-11-06T00:17:50.774Z,100893.66
2022-11-06T00:23:11.055Z,100889.47
2022-11-06T00:28:31.626Z,100879.22
2022-11-06T00:33:53.727Z,100868.22
2022-11-06T00:39:14.594Z,100881.53
2022-11-06T00:44:34.883Z,100875.81
2022-11-06T00:49:55.315Z,100866.56
2022-11-06T00:55:15.925Z,100840.16
2022-11-06T01:00:36.392Z,100860.66
2022-11-06T01:06:04.346Z,100833.25
2022-11-06T01:11:29.508Z,100842.53
2022-11-06T01:16:54.721Z,100832.19
2022-11-06T01:22:15.863Z,100826.97
2022-11-06T01:27:36.397Z,100843.91
2022-11-06T01:32:56.770Z,100836.19
2022-11-06T01:38:17.872Z,100829.34
2022-11-06T01:43:47.517Z,100828.53
2022-11-06T01:49:14.011Z,100807.94
2022-11-06T01:54:38.142Z,100801.03
2022-11-06T01:59:58.883Z,100801.84
2022-11-06T02:05:19.775Z,100798.38
2022-11-06T02:10:42.521Z,100808.59
2022-11-06T02:16:39.090Z,100780.31
2022-11-06T02:22:18.960Z,100802.47
2022-11-06T02:27:44.332Z,100798.97
2022-11-06T02:33:09.105Z,100780.00
2022-11-06T02:38:38.151Z,100777.25
2022-11-06T02:44:02.818Z,100771.91
2022-11-06T02:49:30.295Z,100776.00
2022-11-06T02:55:04.149Z,100764.78
2022-11-06T03:00:27.683Z,100772.19
2022-11-06T03:06:06.828Z,100733.59
2022-11-06T03:11:40.307Z,100744.56
2022-11-06T03:17:16.688Z,100731.69
2022-11-06T03:22:55.648Z,100736.66
2022-11-06T03:28:33.192Z,100720.25
2022-11-06T03:34:08.157Z,100732.09
2022-11-06T03:39:37.792Z,100718.31
2022-11-06T03:45:05.568Z,100731.13
2022-11-06T03:50:31.392Z,100729.31
2022-11-06T03:56:05.030Z,100728.41
2022-11-06T04:01:29.534Z,100714.63
2022-11-06T04:06:58.366Z,100732.69
2022-11-06T04:12:42.682Z,100744.56
2022-11-06T04:18:03.214Z,100745.41
2022-11-06T04:24:09.690Z,100744.66
2022-11-06T04:30:02.864Z,100744.66
2022-11-06T04:35:40.130Z,100761.81
2022-11-06T04:41:12.208Z,100754.22
2022-11-06T04:46:39.839Z,100751.72
2022-11-06T04:52:02.669Z,100745.66
2022-11-06T04:57:23.977Z,100755.72
2022-11-06T05:02:45.842Z,100757.38
2022-11-06T05:08:07.129Z,100736.88
2022-11-06T05:13:28.433Z,100771.88
2022-11-06T05:18:49.995Z,100753.03
2022-11-06T05:24:10.854Z,100753.81
2022-11-06T05:29:31.250Z,100762.31
2022-11-06T05:34:51.671Z,100747.66
2022-11-06T05:40:12.940Z,100764.78
2022-11-06T05:45:33.583Z,100756.13
2022-11-06T05:51:00.260Z,100765.56
2022-11-06T05:56:20.590Z,100766.34
2022-11-06T06:01:41.017Z,100769.66
2022-11-06T06:07:01.730Z,100772.22
2022-11-06T06:12:24.614Z,100771.28
2022-11-06T06:17:48.238Z,100752.28
2022-11-06T06:23:09.820Z,100749.66
2022-11-06T06:28:30.439Z,100770.41
2022-11-06T06:33:51.067Z,100755.91
2022-11-06T06:39:11.501Z,100757.56
2022-11-06T06:44:32.675Z,100770.34
2022-11-06T06:49:53.055Z,100774.63
2022-11-06T06:55:14.622Z,100766.03
2022-11-06T07:00:35.773Z,100768.63
2022-11-06T07:05:59.669Z,100769.53
2022-11-06T07:11:20.420Z,100792.72
2022-11-06T07:16:41.173Z,100776.53
2022-11-06T07:22:01.671Z,100767.19
2022-11-06T07:27:22.501Z,100774.94
2022-11-06T07:32:43.503Z,100774.09
2022-11-06T07:38:06.766Z,100790.31
2022-11-06T07:43:27.727Z,100788.53
2022-11-06T07:48:48.528Z,100770.47
2022-11-06T07:54:11.263Z,100774.72
2022-11-06T07:59:34.655Z,100779.00
2022-11-06T08:04:55.583Z,100787.56
2022-11-06T08:10:16.359Z,100798.63
2022-11-06T08:15:38.444Z,100793.59
2022-11-06T08:20:58.905Z,100809.09
2022-11-06T08:26:19.774Z,100786.78
2022-11-06T08:31:40.432Z,100784.81
2022-11-06T08:37:00.990Z,100770.22
2022-11-06T08:42:22.018Z,100782.31
2022-11-06T08:47:42.831Z,100796.88
2022-11-06T08:53:06.278Z,100789.16
2022-11-06T08:58:27.067Z,100810.53
2022-11-06T09:03:48.071Z,100797.72
2022-11-06T09:09:09.629Z,100799.50
2022-11-06T09:14:30.216Z,100800.44
2022-11-06T09:19:51.594Z,100803.06
2022-11-06T09:25:12.857Z,100812.47
2022-11-06T09:30:33.402Z,100796.03
2022-11-06T09:35:55.840Z,100794.47
2022-11-06T09:41:35.345Z,100796.41
2022-11-06T09:47:00.975Z,100804.34
2022-11-06T09:52:21.647Z,100813.06
2022-11-06T09:57:54.339Z,100791.81
2022-11-06T10:03:40.189Z,100797.94
2022-11-06T10:09:03.424Z,100797.25
2022-11-06T10:14:36.220Z,100798.28
2022-11-06T10:20:10.091Z,100789.78
2022-11-06T10:26:04.819Z,100774.41
2022-11-06T10:31:46.265Z,100772.38
2022-11-06T10:37:19.348Z,100751.66
2022-11-06T10:42:41.360Z,100753.81
2022-11-06T10:48:19.788Z,100757.06
2022-11-06T10:54:02.096Z,100757.94
2022-11-06T10:59:22.470Z,100765.56
2022-11-06T11:04:44.026Z,100760.69
2022-11-06T11:10:23.114Z,100761.81
2022-11-06T11:15:45.625Z,100755.09
2022-11-06T11:21:25.515Z,100753.75
2022-11-06T11:26:52.644Z,100747.38
2022-11-06T11:32:18.775Z,100738.06
2022-11-06T11:37:40.308Z,100756.19
2022-11-06T11:43:23.322Z,100737.50
2022-11-06T11:48:45.238Z,100727.38
2022-11-06T11:54:11.617Z,100739.66
2022-11-06T11:59:41.357Z,100718.31
2022-11-06T12:05:13.197Z,100721.75
2022-11-06T12:10:44.469Z,100734.53
2022-11-06T12:16:13.669Z,100714.97
2022-11-06T12:21:39.558Z,100704.75
2022-11-06T12:27:08.053Z,100717.66
2022-11-06T12:32:38.683Z,100685.16
2022-11-06T12:38:02.043Z,100695.34
2022-11-06T12:43:37.647Z,100679.25
2022-11-06T12:49:22.579Z,100696.38
2022-11-06T12:54:53.852Z,100674.28
2022-11-06T13:00:31.517Z,100669.25
2022-11-06T13:06:05.980Z,100654.63
2022-11-06T13:11:47.558Z,100646.09
2022-11-06T13:17:25.267Z,100638.47
2022-11-06T13:22:58.972Z,100620.44
2022-11-06T13:28:28.415Z,100611.03
2022-11-06T13:33:56.590Z,100601.59
2022-11-06T13:39:41.352Z,100597.34
2022-11-06T13:45:03.505Z,100586.31
2022-11-06T13:50:59.170Z,100577.69
2022-11-06T13:56:59.252Z,100559.69
2022-11-06T14:02:40.891Z,100556.31
2022-11-06T14:08:07.160Z,100547.84
2022-11-06T14:13:32.367Z,100544.38
2022-11-06T14:18:59.157Z,100548.63
2022-11-06T14:24:19.677Z,100541.81
2022-11-06T14:29:40.374Z,100534.09
2022-11-06T14:35:29.596Z,100515.34
2022-11-06T14:40:50.301Z,100520.41
2022-11-06T14:46:22.637Z,100508.41
2022-11-06T14:51:44.133Z,100517.59
2022-11-06T14:57:05.007Z,100509.97
2022-11-06T15:02:30.073Z,100504.91
2022-11-06T15:08:08.060Z,100515.09
2022-11-06T15:13:30.968Z,100499.03
2022-11-06T15:18:51.998Z,100505.13
2022-11-06T15:24:19.363Z,100507.81
2022-11-06T15:29:42.650Z,100495.00
2022-11-06T15:35:13.074Z,100489.00
2022-11-06T15:40:37.249Z,100479.50
2022-11-06T15:46:07.341Z,100485.91
2022-11-06T15:51:29.283Z,100481.63
2022-11-06T15:56:50.178Z,100484.81
2022-11-06T16:02:22.933Z,100464.16
2022-11-06T16:07:45.867Z,100464.13
2022-11-06T16:13:07.241Z,100467.47
2022-11-06T16:18:42.585Z,100464.13
2022-11-06T16:24:12.449Z,100446.38
2022-11-06T16:29:33.585Z,100460.19
2022-11-06T16:34:55.284Z,100443.97
2022-11-06T16:40:49.459Z,100450.56
2022-11-06T16:46:10.101Z,100423.09
2022-11-06T16:51:32.677Z,100434.09
2022-11-06T16:56:53.355Z,100438.34
2022-11-06T17:02:22.736Z,100408.53
2022-11-06T17:07:45.502Z,100406.72
2022-11-06T17:13:32.508Z,100410.88
2022-11-06T17:18:53.477Z,100409.13
2022-11-06T17:29:57.817Z,100390.97
2022-11-06T17:35:18.457Z,100382.44
2022-11-06T17:40:39.294Z,100382.44
2022-11-06T17:46:01.271Z,100363.66
2022-11-06T17:51:41.563Z,100366.97
2022-11-06T17:57:07.588Z,100364.28
2022-11-06T18:02:54.795Z,100344.78
2022-11-06T18:08:12.898Z,100332.19
2022-11-06T18:13:34.698Z,100322.63
2022-11-06T18:18:56.486Z,100318.66
2022-11-06T18:24:17.532Z,100322.28
2022-11-06T18:29:38.224Z,100323.97
2022-11-06T18:34:58.847Z,100301.78
2022-11-06T18:40:19.511Z,100308.53
2022-11-06T18:45:40.431Z,100295.47
2022-11-06T18:51:11.717Z,100277.69
2022-11-06T18:56:33.655Z,100287.34
2022-11-06T19:01:54.608Z,100271.31
2022-11-06T19:07:15.676Z,100315.03
2022-11-06T19:12:36.898Z,100256.97
2022-11-06T19:17:57.488Z,100260.38
2022-11-06T19:23:17.848Z,100260.53
2022-11-06T19:28:39.820Z,100232.56
2022-11-06T19:34:01.499Z,100235.38
2022-11-06T19:39:22.530Z,100231.59
2022-11-06T19:44:42.969Z,100214.69
2022-11-06T19:50:04.045Z,100222.59
2022-11-06T19:55:27.686Z,100199.97
2022-11-06T20:00:49.143Z,100218.97
2022-11-06T20:06:09.988Z,100212.22
2022-11-06T20:11:56.338Z,100214.31
2022-11-06T20:17:18.155Z,100202.69
2022-11-06T20:22:39.432Z,100200.56
2022-11-06T20:28:00.178Z,100211.56
2022-11-06T20:33:21.264Z,100219.84
2022-11-06T20:38:42.681Z,100207.78
2022-11-06T20:44:03.376Z,100191.75
2022-11-06T20:49:23.928Z,100192.66
2022-11-06T20:54:47.546Z,100195.03
2022-11-06T21:00:09.376Z,100185.44
2022-11-06T21:05:29.937Z,100181.00
2022-11-06T21:11:03.308Z,100183.47
2022-11-06T21:16:29.874Z,100171.41
2022-11-06T21:21:51.743Z,100200.28
2022-11-06T21:27:12.381Z,100162.03
2022-11-06T21:32:34.008Z,100156.09
2022-11-06T21:37:54.519Z,100135.75
2022-11-06T21:43:15.244Z,100140.84
2022-11-06T21:48:52.297Z,100132.28
2022-11-06T21:54:32.091Z,100123.72
2022-11-06T21:59:52.741Z,100101.56
2022-11-06T22:05:13.521Z,100127.06
2022-11-06T22:10:34.635Z,100133.84
2022-11-06T22:15:55.091Z,100092.00
2022-11-06T22:21:18.685Z,100089.38
2022-11-06T22:26:39.879Z,100069.63
2022-11-06T22:32:00.414Z,100070.50
2022-11-06T22:37:21.147Z,100062.81
2022-11-06T22:42:42.868Z,100053.38
2022-11-06T22:48:05.459Z,100051.53
2022-11-06T22:53:25.897Z,100047.16
2022-11-06T22:58:46.718Z,100042.84
2022-11-06T23:04:14.922Z,100041.91
2022-11-06T23:09:35.767Z,100037.63
2022-11-06T23:14:58.551Z,100030.66
2022-11-06T23:20:20.351Z,100026.22
2022-11-06T23:25:41.071Z,100033.75
2022-11-06T23:31:06.828Z,100010.66
2022-11-06T23:36:27.436Z,100004.50
2022-11-06T23:41:47.731Z,99994.88
2022-11-06T23:47:08.317Z,100001.44
2022-11-06T23:52:28.854Z,99992.59
2022-11-06T23:57:49.492Z,99989.75
